Main page
METAR-TAF:

METAR-TAF

Airports :

Angoulême – Cognac International Airport

Angoulême, France

latitude: 45-43-46N, longitude: 00-13-08E, elevation: 132 m

Current weather observation

The report was made 25 minutes ago, at 02:00 UTC
Calm wind
Temperature 10°C
Humidity 87%
Pressure 1025 hPa
Visibility 10 km or more
no clouds below 1500 m and no cumulonimbus

METAR: LFBU 220200Z AUTO 00000KT CAVOK 10/08 Q1025

Time: 04:25 (02:25 UTC)

Forecast

The report was made 9 hours and 25 minutes ago, at 17:00 UTC
Forecast valid from 21 at 18 UTC to 22 at 18 UTC
Wind 8 kt from the West
Visibility 10 km or more
Broken clouds at a height of 3000 ft
Temporary
from 22 at 05 UTC to 22 at 08 UTC
Shallow fog

TAF: LFBU 211700Z 2118/2218 28008KT 9999 BKN030 TEMPO 2205/2208 MIFG

Weather observations and forecasts of more than 4000 airports (METAR and TAF reports).

The available stations are represented by yellow and red dots on the map.

Hover mouse over dot to see the name of the station.

Then click to see weather observations and forecasts.

To change the map : click on the green buttons with a black cross to zoom in, on the green button with a dash to zoom out, or on the green arrows for adjacent maps.


METAR-TAF: